KMKO

Muskogee-Davis Regional Airport

Muskogee, Oklahoma, USA
METAR KMKO 230753Z AUTO 17004KT 10SM CLR 21/21 A3001 RMK AO2 SLP155 T02060206
Observed Flight Rules
May-23 @ 07:53 UTC (44 minutes ago) Visual Flight Rules
Wind Visibility Clouds
170° at 4 knots 10 miles
  • Clear skies
Temperatures Readings
Current 21°C / 70°F
Dewpoint 21°C / 70°F
Humidity 100%
Altimeter 30.01" Hg
Pressure 1015.5 hPa
Elevation 185
METAR KMKO 230753Z AUTO 17004KT 10SM CLR 21/21 A3001 RMK AO2 SLP155 T02060206
Observed Flight Rules
May-23 @ 07:53 UTC
(44 minutes ago)
VFR
Wind Visibility
170° at 4 knots 10 miles
Clouds
  • Clear skies
Temperature Dewpoint
21°C / 70°F 21°C / 70°F
Humidity Altimeter Pressure
100% 30.01" Hg 1015.5 hPa